This is the latest recevied weather packets stored in our database for station/object DO0SOB-11. If no packets are shown the sender has not sent any weather packets the latest 10 day(s).
| Time | Temp. | Humidity | Pressure | Rain* | Wind** | Luminosity | Snow |
|---|---|---|---|---|---|---|---|
| 1777796084 | 20° C | 72% | 974 hPa | - | - | - | - |
| 1777795184 | 17.78° C | 89% | 973.9 hPa | - | - | - | - |
| 1777794284 | 18.33° C | 85% | 973.7 hPa | - | - | - | - |
| 1777793384 | 17.22° C | 97% | 973.8 hPa | - | - | - | - |
| 1777792483 | 17.78° C | 99% | 973.8 hPa | - | - | - | - |
| 1777791583 | 16.67° C | 100% | 973.8 hPa | - | - | - | - |
| 1777790683 | 18.33° C | 88% | 973.9 hPa | - | - | - | - |
| 1777789783 | 16.67° C | 100% | 974 hPa | - | - | - | - |
| 1777788883 | 16.11° C | 100% | 973.9 hPa | - | - | - | - |
| 1777787983 | 15.56° C | 100% | 973.7 hPa | - | - | - | - |
| 1777787083 | 15.56° C | 100% | 973.7 hPa | - | - | - | - |
| 1777786183 | 15.56° C | 100% | 973.6 hPa | - | - | - | - |
| 1777785283 | 15° C | 100% | 973.6 hPa | - | - | - | - |
| 1777784383 | 15.56° C | 100% | 973.6 hPa | - | - | - | - |
| 1777783483 | 15° C | 100% | 973.7 hPa | - | - | - | - |
| 1777782583 | 14.44° C | 100% | 973.7 hPa | - | - | - | - |
| 1777781683 | 14.44° C | 100% | 973.7 hPa | - | - | - | - |
| 1777780783 | 15° C | 100% | 973.9 hPa | - | - | - | - |
| 1777779882 | 15° C | 100% | 973.8 hPa | - | - | - | - |
| 1777778982 | 15° C | 100% | 974 hPa | - | - | - | - |
| 1777778082 | 14.44° C | 100% | 974 hPa | - | - | - | - |
| 1777777182 | 13.89° C | 100% | 973.9 hPa | - | - | - | - |
| 1777776282 | 13.89° C | 100% | 974 hPa | - | - | - | - |
| 1777775382 | 13.89° C | 100% | 973.9 hPa | - | - | - | - |
| 1777774482 | 14.44° C | 100% | 973.9 hPa | - | - | - | - |
* Rain since midnight (hover to see other rain measurements)
** Current wind speed in m/s (hover to see current wind gust speed)